Carlos Iglesias

Recruteur - Platense
9 Juil 2028
Dimanche
Processus

Personnalité

Adaptabilité (2) Ambition (6) Controverse (16) Loyauté (15) Pression (7) Professionnalisme (8) Sportivité (15) Tempérament (17)

Profil

Style d'entraînement Démocratique
Diplôme Continental A
Détermination 8
Gestion des joueurs 7
Motivation 7
Discipline 11
Satisfaction professionnelle
100%
Fatigue
0%
Rôle Recruteur
Salaire 44.6K p/s
Contrat 14.03.2029

Performance

Comportement Bon
Efficacité de l'entraînement
39%
Développement des joueurs
40%
Prévention des blessures
35%
Mise en place tactique
35%

Événements récents

A participé à une réunion de recrutement 14j
A participé à une réunion de recrutement 21j
A évalué un joueur 28j
A participé à une réunion de recrutement 28j
A évalué un joueur 35j
A participé à une réunion de recrutement 35j
A participé à une réunion de recrutement 35j
A évalué un joueur 42j

Suivi en cours

168
Joueur Club Statut Capacité Confiance Observé Dernière observation Dernier vote
Eli Junior Kroupi Bournemouth Actif 151 / 154 40% 7 05.06.2028 -
Josh Nichols Oldham Athletic Actif 119 / 137 40% 2 05.06.2028 -
Romelle Donovan Brentford Actif 129 / 132 40% 2 05.06.2028 -
Tyler Fletcher Rotherham United Actif 110 / 110 40% 4 29.05.2028 -
Dani Díaz Real Sociedad Actif 119 / 133 40% 2 29.05.2028 -
Jake Evans Crewe Alexandra Actif 103 / 126 40% 3 27.05.2028 -
Amin Nabizada Exeter City Actif 105 / 110 40% 3 27.05.2028 -
Trey Nyoni Rotherham United Actif 131 / 159 40% 5 26.05.2028 -
Gabriel Mec Feirense Actif 127 / 144 40% 3 26.05.2028 -
Kiani Inge Groningen Actif 119 / 107 40% 2 25.05.2028 -
Gaël Lafont Dolomiti Bellunesi Actif 100 / 106 40% 1 25.05.2028 -
Ibrahim Fullah Charlton Athletic Actif 122 / 126 40% 1 25.05.2028 -
Riquelme Thompson-Jones Accrington Stanley Actif 116 / 127 40% 1 25.05.2028 -
Andrea Cogoni Cosenza Actif 110 / 102 40% 1 25.05.2028 -
Jan Bürger Northampton Town Actif 126 / 113 40% 3 21.05.2028 -
Luca Williams-Barnett Walsall Actif 121 / 139 40% 2 21.05.2028 -
Jamal Iddrissou Pergolettese Actif 111 / 122 40% 2 20.05.2028 -
Henrique Carmo Sochi Actif 133 / 140 40% 3 20.05.2028 -
Ben Broggio Mansfield Town Actif 118 / 105 40% 1 20.05.2028 -
Edison Gruezo Guadalajara Actif 112 / 124 40% 3 19.05.2028 -
Rio Ngumoha Plymouth Argyle Actif 142 / 147 40% 2 19.05.2028 -
Kelian Le Pironnec Mirandés Actif 93 / 109 40% 1 19.05.2028 -
Itumeleng Jali Spezia Actif 111 / 134 40% 1 19.05.2028 -
Adnan Nainggolan KV Oostende Actif 104 / 107 40% 1 18.05.2028 -
Lautaro Dufur Juventud Actif 107 / 101 40% 1 18.05.2028 -
Gabe Forsyth Colchester United Actif 115 / 112 40% 2 16.05.2028 -
Christos Mouzakitis Hull City Actif 136 / 131 40% 5 14.05.2028 -
Luke Brooke-Smith Chesterfield Actif 108 / 117 40% 1 14.05.2028 -
Leo Pecover Swindon Town Actif 98 / 114 40% 1 14.05.2028 -
Mateus Mané Burnley Actif 135 / 150 40% 6 13.05.2028 -
Sindre Walle Egeli Udinese Actif 148 / 155 40% 5 12.05.2028 -
Kerim Alajbegović Modena Actif 131 / 130 40% 4 12.05.2028 -
Giovanni Cantizano Fulham Actif 119 / 133 40% 4 11.05.2028 -
Rodrigo Mora AC Milan Actif 137 / 142 40% 1 11.05.2028 -
Tomás Peixoto Porto Actif 101 / 104 40% 2 10.05.2028 -
Daniel Banjaqui Benfica Actif 132 / 125 40% 1 09.05.2028 -
Omar Khedr Gillingham Actif 111 / 112 40% 3 06.05.2028 -
Martim Cunha Porto Actif 103 / 122 40% 2 04.05.2028 -
İsak Vural Audace Cerignola Actif 130 / 134 40% 1 04.05.2028 -
Augusto Bando Ascoli Actif 101 / 115 40% 1 04.05.2028 -
Abubakar Adams Aduana Stars Actif 86 / 75 40% 1 04.05.2028 -
Sidiki Chérif Newcastle United Actif 129 / 152 40% 2 02.05.2028 -
Shea Lacey Crystal Palace Actif 137 / 131 40% 2 01.05.2028 -
Ryan Kavuma-McQueen Accrington Stanley Actif 117 / 136 40% 2 28.04.2028 -
Josh Acheampong Everton Actif 144 / 159 40% 2 27.04.2028 -
Oskar Pietuszewski Estrela da Amadora Actif 138 / 143 40% 3 23.04.2028 -
Babis Kostoulas Oxford United Actif 140 / 162 40% 1 15.04.2028 -
Josh King Newcastle United Actif 136 / 146 40% 1 14.04.2028 -
Honest Ahanor Atalanta Actif 139 / 136 40% 1 12.04.2028 -
Ryan McAidoo Oldham Athletic Actif 124 / 133 40% 1 06.04.2028 -
Lander Astiazarán Real Sociedad Actif 114 / 101 40% 2 30.05.2027 -
Victor Hernandez Santa Fe Actif 118 / 134 40% 2 30.05.2027 -
Riyad Idrissi Cagliari Actif 119 / 128 40% 1 29.05.2027 -
Riley Owen Stevenage Actif 101 / 114 40% 4 25.05.2027 -
Rivaldo Mkhize Black Aces Actif 78 / 88 40% 3 24.05.2027 -
Borna Knezović Casarano Actif 114 / 118 40% 3 24.05.2027 -
Landerson Moreirense Actif 97 / 99 40% 2 24.05.2027 -
Dylan Cabral Arsenal Actif 100 / 102 40% 2 24.05.2027 -
Luka Andrade Montevideo City Torque Actif 96 / 105 40% 6 23.05.2027 -
Lwanda Mbanjwa Platinum Stars Actif 98 / 81 40% 2 23.05.2027 -
Miguel Figueiredo Benfica Actif 103 / 111 40% 3 22.05.2027 -
Mpho Khethang FC Diarra Actif 71 / 81 40% 2 22.05.2027 -
João Abreu Porto Actif 93 / 95 40% 1 21.05.2027 -
Ousseynou Seck Randers Actif 116 / 121 40% 3 19.05.2027 -
Miloš Jovičić Zabbar St. Patrick Actif 89 / 100 40% 3 19.05.2027 -
Fábio Jaló Barnsley Actif 105 / 94 40% 1 19.05.2027 -
Gonçalo Oliveira Benfica Actif 104 / 120 40% 3 18.05.2027 -
Chimobi Igwilo Rangers International Actif 83 / 89 40% 1 17.05.2027 -
Gabriele Bertolini Vicenza Actif 107 / 88 40% 1 17.05.2027 -
Eduardo Lozano Botafogo Actif 144 / 155 40% 4 14.05.2027 -
Eliás Montiel Borussia Dortmund Actif 134 / 148 40% 2 13.05.2027 -
Leandro Martins Benfica Actif 89 / 89 40% 1 11.05.2027 -
Elijas Gunnergård Ortan Ahrobiznes Actif 72 / 100 40% 1 08.05.2027 -
Moncef Zekri Sporting CP Actif 88 / 101 40% 2 04.05.2027 -
Sascha Britschgi AC Milan Actif 109 / 128 40% 1 04.05.2027 -
Charlie Gray Fleetwood Town Actif 84 / 92 40% 1 02.05.2027 -
Rafael Moreno Atletico Venezuela Actif 100 / 104 40% 1 30.04.2027 -
Rhys Walters Port Vale Actif 95 / 122 40% 1 28.04.2027 -
Samuele di Benedetto Twente Actif 101 / 108 40% 2 27.04.2027 -
Maren Kefas Plateau United Actif 97 / 99 40% 3 25.04.2027 -
Víctor Guzmán Sporting CP Actif 105 / 111 40% 3 24.04.2027 -
Abubakar Garba Nasarawa United Actif 80 / 111 40% 1 23.04.2027 -
Alessandro Zoboletti Sambenedettese Actif 79 / 84 40% 1 23.04.2027 -
Mahmoud Labib Heart of Lions Actif 75 / 93 40% 1 18.04.2027 -
Olivier Leroux Mouscron Actif 104 / 89 40% 1 18.04.2027 -
Luke Baartman Ajax Cape Town Actif 112 / 106 40% 3 17.04.2027 -
Etsgar Cruz Ruch Actif 92 / 81 40% 1 15.04.2027 -
Dani Ángel Sampdoria Actif 86 / 105 40% 2 14.04.2027 -
Lorenzo De Leo Renate Actif 111 / 102 40% 2 14.04.2027 -
Kazunari Kita Real Sociedad Actif 107 / 119 40% 3 04.04.2027 -
Enzo Koffi Olympique de Marseille Actif 104 / 117 40% 1 04.04.2027 -
Nahuel Olmedo Crawley Town Actif 85 / 78 40% 1 03.04.2027 -
Ahmed Khaled Paralimni Actif 94 / 83 40% 1 02.04.2027 -
Facundo Techera Santos Laguna Actif 84 / 78 40% 1 01.04.2027 -
Konta Ismaily Actif 82 / 115 40% 1 31.03.2027 -
Kubrat Onasci Septemvri Actif 85 / 87 40% 1 29.03.2027 -
Alen Vukaj Alcione Milano Actif 85 / 87 40% 1 28.03.2027 -
Samuele Diodato Lumezzane Actif 94 / 111 40% 2 27.03.2027 -
Giuseppe Coppola Picerno Actif 99 / 101 40% 1 27.03.2027 -
Will Lankshear Middlesbrough Actif 128 / 117 40% 1 27.03.2027 -
George Hoddle Cambridge United Actif 95 / 89 40% 1 27.03.2027 -
Lucas Agazzi Villarreal Actif 124 / 124 40% 1 25.03.2027 -
Edwin Asamoah Berekum Chelsea Actif 85 / 82 40% 2 24.03.2027 -
Federico Valentini Forli Actif 97 / 84 40% 2 24.03.2027 -
Lucas Bergvall Tottenham Actif 159 / 162 40% 1 21.03.2027 -
James Dornelly Peterborough United Actif 107 / 111 40% 1 20.03.2027 -
George Brown Sheffield Wednesday Actif 108 / 120 40% 1 17.03.2027 -
Amine Boukamir Charleroi Actif 111 / 94 40% 1 14.03.2027 -
Jenson Jones Walsall Actif 103 / 103 40% 2 13.03.2027 -
Juan Pablo De la Reta Rayo Vallecano Actif 107 / 114 40% 1 11.03.2027 -
Dara O'Shea Ipswich Town Actif 142 / 117 40% 2 29.11.2026 -
Léo Leroy Preston Actif 127 / 136 40% 1 29.11.2026 -
Tomás Händel Crvena Zvezda Actif 126 / 138 40% 1 27.11.2026 -
Michael Baidoo Plymouth Argyle Actif 132 / 130 40% 1 26.11.2026 -
Teden Mengi Luton Town Actif 119 / 118 40% 1 26.11.2026 -
Tyrese Campbell Sheffield United Actif 120 / 116 40% 2 23.11.2026 -
Dejan Zukić Vojvodina Actif 130 / 125 40% 1 23.11.2026 -
Joe Gelhardt Hull City Actif 122 / 130 40% 1 23.11.2026 -
Jacob Greaves Ipswich Town Actif 142 / 147 40% 1 23.11.2026 -
Lucas Da Cunha Como Actif 143 / 155 40% 1 22.11.2026 Plus d'infos
Shea Charles Southampton Actif 143 / 119 40% 1 22.11.2026 -
Aidan Morris Middlesbrough Actif 128 / 123 40% 1 20.11.2026 -
Ilyas Ansah Hull City Actif 143 / 149 40% 1 18.11.2026 -
Ben Nelson Leicester City Actif 123 / 140 40% 1 18.11.2026 -
Santiago Toloza O'Higgins Actif 130 / 127 40% 4 16.11.2026 -
Reda Khadra Qarabag Actif 129 / 138 40% 1 16.11.2026 -
Danil Glebov Dinamo Moscow Actif 120 / 117 40% 1 15.11.2026 -
Nicolás Romero Minnesota United FC Actif 133 / 113 40% 1 15.11.2026 -
Valentín Gómez Betis Actif 125 / 156 40% 1 14.11.2026 -
Tariq Lamptey Queens Park Rangers Actif 132 / 138 40% 1 14.11.2026 -
Alexis Cuello San Lorenzo Actif 133 / 115 40% 1 13.11.2026 -
Sergey Pinyaev Lokomotiv Moscow Actif 134 / 110 40% 1 12.11.2026 -
Sorba Thomas Stoke City Actif 129 / 146 40% 1 11.11.2026 -
Alfie Doughty Millwall Actif 140 / 113 40% 1 11.11.2026 -
Marcelo Allende Mamelodi Sundowns Actif 135 / 119 40% 2 10.11.2026 -
Franco Watson Lanús Actif 121 / 119 40% 1 10.11.2026 -
Lucas Cepeda Elche Actif 113 / 137 40% 1 06.11.2026 -
Jaminton Campaz Rosario Central Actif 127 / 129 40% 1 05.11.2026 -
Joaquín Pereyra Minnesota United FC Actif 134 / 112 40% 1 05.11.2026 -
Jacques Ekomié Wrexham Actif 116 / 136 40% 1 02.11.2026 -
Talles Magno New York City Actif 129 / 137 40% 1 02.11.2026 -
Habib Diarra Sunderland Actif 151 / 136 40% 1 02.11.2026 Plus d'infos
Welington Southampton Actif 136 / 126 40% 1 28.10.2026 -
Mamadou Sangaré Brentford Actif 129 / 142 40% 1 23.10.2026 -
Alejandro Pozo Standard Liege Actif 138 / 108 40% 1 23.10.2026 -
Manu Morlanes Mallorca Actif 124 / 140 40% 2 21.10.2026 -
Juan Manuel Sanabria Real Salt Lake Actif 141 / 107 40% 2 21.10.2026 -
Marquinhos Spartak Moscow Actif 128 / 139 40% 1 21.10.2026 -
Jordan Beyer Burnley Actif 146 / 143 40% 1 21.10.2026 -
Yunus Akgün Galatasaray Actif 154 / 128 40% 1 17.10.2026 -
Lasse Berg Johnsen Sporting Kansas City Actif 111 / 139 40% 1 16.10.2026 -
César Ibáñez Huracán Actif 120 / 119 40% 1 09.10.2026 -
Facundo Miño Deportivo Riestra Actif 120 / 114 40% 1 09.10.2026 -
Sergi Cardona KAA Gent Actif 151 / 153 40% 2 06.10.2026 -
Richard Ledezma Guadalajara Actif 138 / 141 40% 3 04.10.2026 -
Luciano Boggio Nacional Actif 120 / 123 40% 1 03.10.2026 -
Carlos Forbs Club Brugge Actif 117 / 133 40% 1 30.09.2026 -
Bongani Zungu Ajax Cape Town Actif 122 / 139 40% 1 24.09.2026 -
David Da Costa Portland Timbers Actif 129 / 139 40% 1 20.09.2026 -
Tyrhys Dolan Espanyol Actif 122 / 121 40% 1 15.09.2026 -
Mateo Garavito Deportivo Pasto Actif 127 / 117 40% 2 12.09.2026 -
Damián Fernández Defensa y Justicia Actif 118 / 137 40% 1 12.09.2026 -
Santiago Simón Toluca Actif 118 / 127 40% 1 11.09.2026 -
Bryan González Guadalajara Actif 137 / 119 40% 1 11.09.2026 -
Jesús Garza Tigres Actif 113 / 124 40% 1 10.09.2026 -
Rômulo Tigres Actif 114 / 113 40% 1 09.09.2026 -
Martín Ojeda Orlando City Actif 139 / 130 40% 1 09.09.2026 -
Nicolás Fonseca Chiapas Actif 133 / 134 40% 1 08.09.2026 -